Time;durP1;ratioP1;P1;durP2;ratioP2;P2;SDS_P1;SDS_P2;PMS_P1;PMS_P2;Temp;Humidity;BMP_temperature;BMP_pressure;BME280_temperature;BME280_humidity;BME280_pressure;Samples;Min_cycle;Max_cycle;Signal;HPM_P1;HPM_P2
2021/03/29 00:00:49;;;;;;;7.28;1.67;;;8.20;99.90;;;;;;5076467;28;20131;-83
2021/03/29 00:03:16;;;;;;;4.07;1.60;;;8.20;99.90;;;;;;5075923;28;20060;-82
2021/03/29 00:05:43;;;;;;;3.35;1.83;;;8.20;99.90;;;;;;5075774;28;20128;-82
2021/03/29 00:08:16;;;;;;;5.85;1.63;;;8.10;99.90;;;;;;5076806;28;20048;-83
2021/03/29 00:10:45;;;;;;;7.43;2.00;;;8.10;99.90;;;;;;5075478;28;20123;-83
2021/03/29 00:13:13;;;;;;;7.53;1.90;;;8.10;99.90;;;;;;5075555;28;20064;-83
2021/03/29 00:15:43;;;;;;;7.55;2.58;;;8.10;99.90;;;;;;5075245;28;20048;-83
2021/03/29 00:18:11;;;;;;;8.13;2.22;;;8.00;99.90;;;;;;5076472;28;20056;-83
2021/03/29 00:20:41;;;;;;;5.72;1.90;;;8.00;99.90;;;;;;5075370;28;20132;-83
2021/03/29 00:23:09;;;;;;;6.57;1.70;;;7.90;99.90;;;;;;5076463;28;20055;-83
2021/03/29 00:25:36;;;;;;;5.65;1.40;;;7.90;99.90;;;;;;5075713;28;20052;-83
2021/03/29 00:28:04;;;;;;;3.53;1.55;;;7.90;99.90;;;;;;5075037;28;20552;-83
2021/03/29 00:30:36;;;;;;;4.32;1.30;;;7.90;99.90;;;;;;5076192;28;20127;-83
2021/03/29 00:33:05;;;;;;;2.30;1.23;;;7.80;99.90;;;;;;5075864;28;20074;-83
2021/03/29 00:35:35;;;;;;;8.93;1.60;;;7.80;99.90;;;;;;5075536;28;20116;-83
2021/03/29 00:38:04;;;;;;;8.82;1.83;;;7.80;99.90;;;;;;5075920;28;20076;-83
2021/03/29 00:40:32;;;;;;;8.02;1.77;;;7.80;99.90;;;;;;5075055;28;20060;-84
2021/03/29 00:43:00;;;;;;;8.00;1.85;;;7.70;99.90;;;;;;5076506;28;20041;-83
2021/03/29 00:45:28;;;;;;;5.43;1.52;;;7.70;99.90;;;;;;5075304;28;20131;-83
2021/03/29 00:47:55;;;;;;;5.30;1.60;;;7.60;99.90;;;;;;5075946;28;20044;-83
2021/03/29 00:50:30;;;;;;;6.68;2.00;;;7.60;99.90;;;;;;5074822;28;20066;-83
2021/03/29 00:52:57;;;;;;;4.00;1.90;;;7.60;99.90;;;;;;5074899;28;20052;-84
2021/03/29 00:55:24;;;;;;;3.97;1.73;;;7.60;99.90;;;;;;5075955;28;20088;-84
2021/03/29 00:57:51;;;;;;;7.60;2.05;;;7.70;99.90;;;;;;5075031;28;20118;-84
2021/03/29 01:00:39;;;;;;;7.00;2.03;;;7.60;99.90;;;;;;5074637;28;20071;-84
2021/03/29 01:03:14;;;;;;;4.88;1.73;;;7.50;99.90;;;;;;5075403;28;20048;-84
2021/03/29 01:05:43;;;;;;;8.18;2.00;;;7.50;99.90;;;;;;5080370;28;20049;-85
2021/03/29 01:08:12;;;;;;;3.30;1.55;;;7.40;99.90;;;;;;5075244;28;20041;-84
2021/03/29 01:10:39;;;;;;;5.93;1.75;;;7.20;99.90;;;;;;5074607;28;20044;-84
2021/03/29 01:13:09;;;;;;;6.88;1.60;;;7.20;99.90;;;;;;5075268;28;20465;-84
2021/03/29 01:15:39;;;;;;;4.80;1.65;;;7.00;99.90;;;;;;5076509;28;20052;-84
2021/03/29 01:18:10;;;;;;;5.82;1.48;;;7.10;99.90;;;;;;5074424;28;20052;-84
2021/03/29 01:21:00;;;;;;;9.68;2.15;;;7.10;99.90;;;;;;5073918;28;20139;-84
2021/03/29 01:23:29;;;;;;;5.93;1.70;;;7.00;99.90;;;;;;5074992;28;20047;-84
2021/03/29 01:26:21;;;;;;;5.20;1.90;;;7.00;99.90;;;;;;5075227;28;20479;-84
2021/03/29 01:28:48;;;;;;;12.80;2.22;;;7.10;99.90;;;;;;5074559;28;20130;-84
2021/03/29 01:31:15;;;;;;;6.70;1.60;;;7.30;99.90;;;;;;5073887;28;20070;-84
2021/03/29 01:33:44;;;;;;;4.50;1.70;;;7.40;99.90;;;;;;5073948;28;20140;-84
2021/03/29 01:36:11;;;;;;;2.58;1.80;;;7.40;99.90;;;;;;5075065;28;20080;-83
2021/03/29 01:38:38;;;;;;;9.52;2.35;;;7.40;99.90;;;;;;5073960;28;20143;-83
2021/03/29 01:41:06;;;;;;;6.03;1.73;;;7.50;99.90;;;;;;5073969;28;20596;-84
2021/03/29 01:43:33;;;;;;;4.40;1.55;;;7.50;99.90;;;;;;5076336;28;20131;-84
2021/03/29 01:46:00;;;;;;;12.57;2.20;;;7.40;99.90;;;;;;5074377;28;20052;-84
2021/03/29 01:48:26;;;;;;;7.00;1.77;;;7.30;99.90;;;;;;5073995;28;20074;-84
2021/03/29 01:50:54;;;;;;;7.22;1.60;;;7.20;99.90;;;;;;5073662;28;20087;-83
2021/03/29 01:53:30;;;;;;;5.13;1.65;;;7.20;99.90;;;;;;5073425;28;20382;-84
2021/03/29 01:55:56;;;;;;;17.02;2.92;;;7.40;99.90;;;;;;5075201;28;20428;-84
2021/03/29 01:58:22;;;;;;;10.10;2.28;;;7.50;99.90;;;;;;5073783;28;20095;-84
2021/03/29 02:01:01;;;;;;;4.32;1.50;;;7.60;99.90;;;;;;5073304;28;20091;-84
2021/03/29 02:03:28;;;;;;;8.05;1.85;;;7.70;99.90;;;;;;5073057;28;20045;-83
2021/03/29 02:05:56;;;;;;;6.53;1.95;;;7.80;99.90;;;;;;5073673;28;20090;-84
2021/03/29 02:08:25;;;;;;;6.28;1.90;;;8.00;99.90;;;;;;5074634;28;20084;-83
2021/03/29 02:10:52;;;;;;;6.00;1.90;;;8.00;99.90;;;;;;5073194;28;20119;-83
2021/03/29 02:13:32;;;;;;;10.50;2.38;;;8.10;99.90;;;;;;5073143;28;20118;-84
2021/03/29 02:16:04;;;;;;;11.25;2.60;;;8.10;99.90;;;;;;5073535;28;20135;-84
2021/03/29 02:18:36;;;;;;;7.60;2.15;;;8.10;99.90;;;;;;5073248;28;20052;-84
2021/03/29 02:21:07;;;;;;;6.00;2.78;;;7.90;99.90;;;;;;5072956;28;20091;-84
2021/03/29 02:23:33;;;;;;;7.05;2.15;;;7.60;99.90;;;;;;5073061;28;20053;-83
2021/03/29 02:26:02;;;;;;;5.03;1.98;;;7.40;99.90;;;;;;5073083;28;20100;-84
2021/03/29 02:28:29;;;;;;;17.45;2.85;;;7.10;99.90;;;;;;5073484;28;20076;-84
2021/03/29 02:30:56;;;;;;;16.70;2.67;;;7.00;99.90;;;;;;5073274;28;20428;-84
2021/03/29 02:33:22;;;;;;;7.03;2.33;;;6.80;99.90;;;;;;5074216;28;20053;-84
2021/03/29 02:35:51;;;;;;;5.55;2.03;;;6.70;99.90;;;;;;5074156;28;20044;-83
2021/03/29 02:38:18;;;;;;;11.35;2.50;;;6.50;99.90;;;;;;5073056;28;20127;-83
2021/03/29 02:40:49;;;;;;;8.40;2.65;;;6.20;99.90;;;;;;5072409;28;20060;-84
2021/03/29 02:43:16;;;;;;;9.30;2.45;;;6.20;99.90;;;;;;5072922;28;20086;-83
2021/03/29 02:45:46;;;;;;;10.27;2.30;;;6.20;99.90;;;;;;5073077;28;20078;-84
2021/03/29 02:48:15;;;;;;;9.02;2.00;;;6.00;99.90;;;;;;5072986;28;20091;-83
2021/03/29 02:50:44;;;;;;;9.40;2.40;;;5.90;99.90;;;;;;5072765;28;20048;-84
2021/03/29 02:53:23;;;;;;;9.98;2.67;;;5.80;99.90;;;;;;5073326;28;20135;-83
2021/03/29 02:55:51;;;;;;;10.40;2.80;;;5.80;99.90;;;;;;5072954;28;20048;-83
2021/03/29 02:58:21;;;;;;;10.73;2.60;;;5.70;99.90;;;;;;5072742;28;20052;-83
2021/03/29 03:00:48;;;;;;;4.65;2.30;;;5.70;99.90;;;;;;5073072;28;20143;-83
2021/03/29 03:03:15;;;;;;;6.20;2.00;;;5.70;99.90;;;;;;5072546;28;20044;-83
2021/03/29 03:05:44;;;;;;;9.80;2.20;;;5.70;99.90;;;;;;5072384;28;20045;-84
2021/03/29 03:08:10;;;;;;;11.95;2.45;;;5.70;99.90;;;;;;5073531;28;20080;-83
2021/03/29 03:10:37;;;;;;;7.45;2.30;;;5.70;99.90;;;;;;5074261;28;20044;-83
2021/03/29 03:13:07;;;;;;;11.73;2.50;;;5.70;99.90;;;;;;5073472;28;20480;-84
2021/03/29 03:15:34;;;;;;;13.15;2.92;;;5.70;99.90;;;;;;5072408;28;20084;-83
2021/03/29 03:18:05;;;;;;;19.27;2.78;;;5.70;99.90;;;;;;5072786;28;20566;-84
2021/03/29 03:20:33;;;;;;;10.40;2.55;;;5.80;99.90;;;;;;5072848;28;20091;-83
2021/03/29 03:23:02;;;;;;;8.80;2.03;;;5.90;99.90;;;;;;5072543;28;20123;-84
2021/03/29 03:25:31;;;;;;;7.22;2.10;;;5.90;99.90;;;;;;5072589;28;20123;-84
2021/03/29 03:28:00;;;;;;;18.85;3.28;;;5.90;99.90;;;;;;5072775;28;20470;-83
2021/03/29 03:30:33;;;;;;;8.68;2.30;;;5.90;99.90;;;;;;5072691;28;20044;-84
2021/03/29 03:33:00;;;;;;;10.70;2.42;;;5.90;99.90;;;;;;5072730;28;20083;-84
2021/03/29 03:35:28;;;;;;;6.00;2.88;;;5.90;99.90;;;;;;5073915;28;20083;-83
2021/03/29 03:38:16;;;;;;;9.23;3.25;;;5.90;99.90;;;;;;5072616;28;20080;-84
2021/03/29 03:40:45;;;;;;;6.50;3.08;;;5.80;99.90;;;;;;5075411;28;20064;-84
2021/03/29 03:43:16;;;;;;;10.77;3.10;;;5.70;99.90;;;;;;5074017;28;20097;-83
2021/03/29 03:45:57;;;;;;;8.68;2.95;;;5.70;99.90;;;;;;5072933;28;20110;-83
2021/03/29 03:48:25;;;;;;;11.57;2.45;;;5.60;99.90;;;;;;5072329;28;20047;-83
2021/03/29 03:50:51;;;;;;;5.18;2.20;;;5.50;99.90;;;;;;5072337;28;20062;-83
2021/03/29 03:53:20;;;;;;;6.72;2.17;;;5.40;99.90;;;;;;5072375;28;20052;-83
2021/03/29 03:55:52;;;;;;;4.72;1.85;;;5.40;99.90;;;;;;5074961;28;20052;-83
2021/03/29 03:58:19;;;;;;;8.10;1.98;;;5.30;99.90;;;;;;5072367;28;20048;-83
2021/03/29 04:00:47;;;;;;;7.68;2.47;;;5.30;99.90;;;;;;5072018;28;20095;-83
2021/03/29 04:03:14;;;;;;;9.88;2.60;;;5.10;99.90;;;;;;5072160;28;20481;-83
2021/03/29 04:05:40;;;;;;;16.88;2.47;;;5.10;99.90;;;;;;5075740;28;20045;-83
2021/03/29 04:08:26;;;;;;;10.07;1.90;;;5.00;99.90;;;;;;5076710;28;20059;-83
2021/03/29 04:10:56;;;;;;;7.95;3.33;;;4.90;99.90;;;;;;5075878;28;20501;-83
2021/03/29 04:13:29;;;;;;;18.98;6.53;;;4.80;99.90;;;;;;5076145;28;20075;-83
2021/03/29 04:16:08;;;;;;;16.83;5.30;;;4.70;99.90;;;;;;5076810;28;20083;-83
2021/03/29 04:18:35;;;;;;;20.48;5.32;;;4.60;99.90;;;;;;5077631;28;20045;-84
2021/03/29 04:21:03;;;;;;;25.20;5.13;;;4.70;99.90;;;;;;5079049;28;20416;-84
2021/03/29 04:23:30;;;;;;;14.63;4.32;;;4.70;99.90;;;;;;5076522;28;20044;-83
2021/03/29 04:25:57;;;;;;;6.47;3.47;;;4.80;99.90;;;;;;5077462;28;20493;-85
2021/03/29 04:28:23;;;;;;;9.50;2.80;;;4.70;99.90;;;;;;5077191;28;20041;-83
2021/03/29 04:30:51;;;;;;;14.15;3.85;;;4.60;99.90;;;;;;5078692;28;20517;-83
2021/03/29 04:33:19;;;;;;;13.25;3.22;;;4.60;99.90;;;;;;5076664;28;20504;-83
2021/03/29 04:35:47;;;;;;;36.13;3.88;;;4.60;99.90;;;;;;5077908;28;20423;-83
2021/03/29 04:38:13;;;;;;;38.78;4.43;;;4.70;99.90;;;;;;5076881;28;20056;-83
2021/03/29 04:40:40;;;;;;;24.95;3.63;;;4.60;99.90;;;;;;5076345;28;20056;-83
2021/03/29 04:43:07;;;;;;;11.50;3.60;;;4.70;99.90;;;;;;5076207;28;20499;-83
2021/03/29 04:45:33;;;;;;;10.23;3.40;;;4.80;99.90;;;;;;5078663;28;20108;-84
2021/03/29 04:47:59;;;;;;;14.13;3.20;;;4.90;99.90;;;;;;5076384;28;20091;-84
2021/03/29 04:50:26;;;;;;;9.23;2.42;;;4.90;99.90;;;;;;5076429;28;20052;-83
2021/03/29 04:52:53;;;;;;;10.13;2.72;;;5.00;99.90;;;;;;5075985;28;20410;-84
2021/03/29 04:55:20;;;;;;;9.45;3.20;;;5.10;99.90;;;;;;5076936;28;20052;-83
2021/03/29 04:57:47;;;;;;;11.38;3.50;;;5.20;99.90;;;;;;5077065;28;20588;-83
2021/03/29 05:00:14;;;;;;;22.83;4.03;;;5.20;99.90;;;;;;5075756;28;20052;-83
2021/03/29 05:02:41;;;;;;;7.90;3.25;;;5.30;99.90;;;;;;5075342;28;20079;-83
2021/03/29 05:05:09;;;;;;;12.85;3.60;;;5.20;99.90;;;;;;5075966;28;20496;-83
2021/03/29 05:07:36;;;;;;;10.57;2.85;;;5.20;99.90;;;;;;5075549;28;20106;-84
2021/03/29 05:10:13;;;;;;;8.55;2.63;;;5.10;99.90;;;;;;5076274;28;20087;-84
2021/03/29 05:12:39;;;;;;;9.85;2.83;;;5.10;99.90;;;;;;5076917;28;20075;-83
2021/03/29 05:15:07;;;;;;;7.88;2.60;;;5.10;99.90;;;;;;5075127;28;20079;-83
2021/03/29 05:17:33;;;;;;;9.30;3.00;;;5.20;99.90;;;;;;5075141;28;20079;-83
2021/03/29 05:20:01;;;;;;;68.40;8.27;;;5.20;99.90;;;;;;5075308;28;20053;-84
2021/03/29 05:22:27;;;;;;;24.52;5.78;;;5.30;99.90;;;;;;5074780;28;20140;-83
2021/03/29 05:24:54;;;;;;;21.58;4.85;;;5.40;99.90;;;;;;5074828;28;20075;-83
2021/03/29 05:27:21;;;;;;;32.42;7.07;;;5.40;99.90;;;;;;5076456;28;20044;-83
2021/03/29 05:29:48;;;;;;;27.08;6.10;;;5.40;99.90;;;;;;5076335;28;20508;-83
2021/03/29 05:32:20;;;;;;;23.63;6.28;;;5.50;99.90;;;;;;5074807;28;20080;-82
2021/03/29 05:34:50;;;;;;;27.77;5.30;;;5.70;99.90;;;;;;5075217;28;20075;-83
2021/03/29 05:37:18;;;;;;;35.78;6.25;;;5.70;99.90;;;;;;5074667;28;20389;-83
2021/03/29 05:39:45;;;;;;;18.70;3.85;;;5.70;99.90;;;;;;5075906;28;20108;-83
2021/03/29 05:42:16;;;;;;;22.10;5.40;;;5.90;99.90;;;;;;5074585;28;20052;-83
2021/03/29 05:44:43;;;;;;;28.38;8.43;;;6.00;99.90;;;;;;5074882;28;20455;-83
2021/03/29 05:47:10;;;;;;;26.67;11.23;;;6.00;99.90;;;;;;5074937;28;20114;-83
2021/03/29 05:49:36;;;;;;;32.53;13.30;;;6.10;99.90;;;;;;5075002;28;20122;-83
2021/03/29 05:52:03;;;;;;;43.90;13.57;;;6.30;99.90;;;;;;5074319;28;20131;-83
2021/03/29 05:54:30;;;;;;;39.78;11.55;;;6.40;99.90;;;;;;5074398;28;20122;-83
2021/03/29 05:56:57;;;;;;;27.08;9.32;;;6.50;99.90;;;;;;5074557;28;20060;-83
2021/03/29 05:59:33;;;;;;;24.58;8.15;;;6.60;99.90;;;;;;5076040;28;20058;-82
2021/03/29 06:02:01;;;;;;;28.23;6.32;;;6.70;99.90;;;;;;5076573;28;20072;-84
2021/03/29 06:04:47;;;;;;;18.23;5.90;;;6.60;99.90;;;;;;5076895;28;20048;-84
2021/03/29 06:07:17;;;;;;;23.75;6.00;;;6.80;99.90;;;;;;5075467;28;20045;-82
2021/03/29 06:09:45;;;;;;;43.30;10.88;;;6.90;99.90;;;;;;5074710;28;20040;-82
2021/03/29 06:12:13;;;;;;;67.25;26.13;;;7.20;99.90;;;;;;5074356;28;20508;-82
2021/03/29 06:14:40;;;;;;;251.20;73.28;;;7.90;99.90;;;;;;5074864;28;20135;-82
2021/03/29 06:17:14;;;;;;;37.80;12.10;;;8.20;99.90;;;;;;5074332;28;20052;-82
2021/03/29 06:19:41;;;;;;;192.95;56.38;;;8.50;99.90;;;;;;5073706;28;20084;-82
2021/03/29 06:22:25;;;;;;;212.40;71.10;;;8.70;99.90;;;;;;5073531;28;20056;-82
2021/03/29 06:25:07;;;;;;;107.05;35.20;;;8.60;99.90;;;;;;5073582;28;20494;-82
2021/03/29 06:27:41;;;;;;;122.25;46.22;;;8.60;99.90;;;;;;5067572;28;20120;-82
2021/03/29 06:30:13;;;;;;;;;;;8.60;99.90;;;;;;5068168;28;20131;-82
2021/03/29 06:33:12;;;;;;;36.33;12.45;;;8.80;99.90;;;;;;5073715;28;19978;-82
2021/03/29 06:35:51;;;;;;;43.50;10.70;;;8.90;99.90;;;;;;5074604;28;20148;-82
2021/03/29 06:38:22;;;;;;;22.55;7.10;;;9.30;99.90;;;;;;5073362;28;20127;-82
2021/03/29 06:40:52;;;;;;;310.83;95.97;;;9.50;99.90;;;;;;5073137;28;20052;-82
2021/03/29 06:43:35;;;;;;;31.30;4.72;;;10.00;99.90;;;;;;5073408;28;20116;-82
2021/03/29 06:46:19;;;;;;;203.75;57.38;;;10.50;99.90;;;;;;5075368;28;20074;-82
2021/03/29 06:48:45;;;;;;;;;;;11.30;99.90;;;;;;5074786;28;20052;-81
2021/03/29 06:51:20;;;;;;;15.60;3.53;;;11.80;99.90;;;;;;5073803;28;20352;-82
2021/03/29 06:53:55;;;;;;;45.20;13.85;;;11.80;99.90;;;;;;5074063;28;20114;-82
2021/03/29 06:56:34;;;;;;;32.10;11.18;;;11.90;99.90;;;;;;5073682;28;20114;-82
2021/03/29 06:59:03;;;;;;;16.52;3.60;;;11.80;99.90;;;;;;5078448;28;20489;-81
2021/03/29 07:01:32;;;;;;;24.30;7.65;;;11.90;99.90;;;;;;5078711;28;20055;-82
2021/03/29 07:03:58;;;;;;;13.45;4.72;;;12.50;99.90;;;;;;5080928;28;20416;-82
2021/03/29 07:06:27;;;;;;;37.63;11.77;;;14.50;99.90;;;;;;5079888;28;20106;-82
2021/03/29 07:09:08;;;;;;;27.50;8.57;;;16.40;89.30;;;;;;5079000;28;20056;-82
2021/03/29 07:11:35;;;;;;;11.48;3.40;;;17.40;75.10;;;;;;5080601;28;20075;-82
2021/03/29 07:14:07;;;;;;;33.40;3.60;;;17.30;68.10;;;;;;5080757;28;20048;-81
2021/03/29 07:16:35;;;;;;;4.85;2.15;;;18.20;67.40;;;;;;5080022;28;20048;-82
2021/03/29 07:19:04;;;;;;;7.90;2.53;;;18.50;65.30;;;;;;5080509;28;20048;-82
2021/03/29 07:21:32;;;;;;;8.80;2.47;;;18.60;62.00;;;;;;5080755;28;20052;-81
2021/03/29 07:24:03;;;;;;;17.17;3.65;;;18.40;60.30;;;;;;5080115;28;20139;-83
2021/03/29 07:26:48;;;;;;;8.63;2.80;;;17.90;59.20;;;;;;5079732;28;20049;-81
2021/03/29 07:29:19;;;;;;;8.93;2.75;;;17.00;61.80;;;;;;5080125;28;20048;-81
2021/03/29 07:31:52;;;;;;;5.95;2.60;;;16.30;63.60;;;;;;5080458;28;20044;-82
2021/03/29 07:34:42;;;;;;;8.13;2.53;;;15.60;67.50;;;;;;5076541;28;20126;-82
2021/03/29 07:37:29;;;;;;;11.52;3.63;;;15.70;70.50;;;;;;5074196;28;20052;-82
2021/03/29 07:39:57;;;;;;;10.82;2.78;;;16.00;68.10;;;;;;5075910;28;20056;-82
2021/03/29 07:42:23;;;;;;;8.23;2.60;;;16.40;68.20;;;;;;5078361;28;20121;-82
2021/03/29 07:44:54;;;;;;;9.63;2.88;;;16.40;66.10;;;;;;5077475;28;20048;-83
2021/03/29 07:47:39;;;;;;;10.07;3.30;;;15.90;70.10;;;;;;5078442;28;20076;-82
2021/03/29 07:50:07;;;;;;;9.73;3.60;;;16.90;66.10;;;;;;5077864;28;20104;-82
2021/03/29 07:52:39;;;;;;;11.35;3.30;;;18.10;65.80;;;;;;5077392;28;20080;-81
2021/03/29 07:55:22;;;;;;;7.30;3.30;;;20.60;56.40;;;;;;5078629;28;20052;-82
2021/03/29 07:57:51;;;;;;;8.48;2.67;;;21.20;55.50;;;;;;5077234;28;20091;-82
2021/03/29 08:00:24;;;;;;;8.27;2.63;;;22.10;51.80;;;;;;5077522;28;20044;-81
2021/03/29 08:02:52;;;;;;;9.80;3.00;;;23.40;49.30;;;;;;5077950;28;20045;-81
2021/03/29 08:05:41;;;;;;;8.23;3.03;;;22.20;47.80;;;;;;5073929;28;20079;-81
2021/03/29 08:08:30;;;;;;;21.58;5.65;;;22.50;47.60;;;;;;5078461;28;20049;-82
2021/03/29 08:11:20;;;;;;;7.18;2.60;;;22.80;46.40;;;;;;5073698;28;20048;-82
2021/03/29 08:13:52;;;;;;;8.02;2.90;;;23.20;46.60;;;;;;5077137;28;20048;-82
2021/03/29 08:16:21;;;;;;;15.93;3.35;;;21.30;47.70;;;;;;5077648;28;20166;-81
2021/03/29 08:21:57;;;;;;;10.77;3.17;;;19.40;52.90;;;;;;5081673;28;20104;-81
2021/03/29 08:24:26;;;;;;;13.30;3.92;;;19.40;52.40;;;;;;5083402;28;20045;-81
2021/03/29 08:26:58;;;;;;;8.30;3.00;;;20.70;51.60;;;;;;5081062;28;20044;-82
2021/03/29 08:29:35;;;;;;;8.57;3.03;;;20.90;50.40;;;;;;5081967;28;20130;-82
2021/03/29 08:32:16;;;;;;;11.63;2.88;;;21.70;47.90;;;;;;5082682;28;20087;-82
2021/03/29 08:34:48;;;;;;;19.25;2.90;;;22.40;47.20;;;;;;5082285;28;20418;-81
2021/03/29 08:37:18;;;;;;;9.85;2.72;;;23.00;45.70;;;;;;5081861;28;20048;-82
2021/03/29 08:39:48;;;;;;;16.35;3.05;;;24.20;45.00;;;;;;5083212;28;20501;-82
2021/03/29 08:42:17;;;;;;;9.73;2.40;;;23.90;43.90;;;;;;5081600;28;20086;-80
2021/03/29 08:44:47;;;;;;;6.68;2.60;;;24.30;43.70;;;;;;5081404;28;20040;-81
2021/03/29 08:47:16;;;;;;;8.68;2.38;;;24.90;41.80;;;;;;5081877;28;20049;-81
2021/03/29 08:49:44;;;;;;;7.43;2.38;;;24.90;41.00;;;;;;5080499;28;20051;-82
2021/03/29 08:52:11;;;;;;;11.05;2.65;;;25.50;41.10;;;;;;5081586;28;20048;-82
2021/03/29 08:55:07;;;;;;;5.13;2.00;;;25.90;41.30;;;;;;5082467;28;20127;-82
2021/03/29 08:57:34;;;;;;;14.70;2.85;;;27.50;38.60;;;;;;5081697;28;20048;-82
2021/03/29 09:00:13;;;;;;;3.28;1.80;;;26.70;37.60;;;;;;5081398;28;20071;-82
2021/03/29 09:02:39;;;;;;;7.88;2.40;;;26.40;37.10;;;;;;5081003;28;20067;-82
2021/03/29 09:05:09;;;;;;;8.90;2.10;;;27.20;35.80;;;;;;5082414;28;20578;-82
2021/03/29 09:07:45;;;;;;;8.55;1.77;;;27.50;35.40;;;;;;5078914;28;20101;-82
2021/03/29 09:10:35;;;;;;;7.00;2.10;;;27.30;36.60;;;;;;5076858;28;20075;-82
2021/03/29 09:13:10;;;;;;;14.30;3.63;;;28.40;36.60;;;;;;5077688;28;20048;-82
2021/03/29 09:15:49;;;;;;;6.90;1.73;;;28.40;33.90;;;;;;5076700;28;20048;-82
2021/03/29 09:18:18;;;;;;;5.43;1.73;;;28.30;32.80;;;;;;5076965;28;20092;-82
2021/03/29 09:20:47;;;;;;;7.45;1.83;;;27.30;33.80;;;;;;5076349;28;20138;-82
2021/03/29 09:23:17;;;;;;;3.53;1.38;;;27.20;33.90;;;;;;5076166;28;20127;-82
2021/03/29 09:25:45;;;;;;;4.93;1.60;;;26.80;32.80;;;;;;5076207;28;20131;-82
2021/03/29 09:28:33;;;;;;;12.00;2.53;;;25.50;34.20;;;;;;5076344;28;20083;-82
2021/03/29 09:31:24;;;;;;;6.13;1.15;;;23.90;36.60;;;;;;5076828;28;20123;-82
2021/03/29 09:33:52;;;;;;;6.25;1.48;;;22.80;37.60;;;;;;5076614;28;20135;-83
2021/03/29 09:36:20;;;;;;;58.63;6.13;;;22.40;39.20;;;;;;5075705;28;20106;-83
2021/03/29 09:38:50;;;;;;;4.43;1.27;;;21.90;40.70;;;;;;5075396;28;20475;-82
2021/03/29 09:41:18;;;;;;;25.00;2.80;;;21.30;41.30;;;;;;5078377;28;20048;-83
2021/03/29 09:43:46;;;;;;;4.47;1.50;;;21.30;41.80;;;;;;5075361;28;20048;-82
2021/03/29 09:46:12;;;;;;;9.15;1.40;;;21.10;41.40;;;;;;5077186;28;20104;-82
2021/03/29 09:48:38;;;;;;;7.93;1.67;;;20.80;42.60;;;;;;5075812;28;20132;-82
2021/03/29 09:51:23;;;;;;;28.98;3.47;;;20.70;43.10;;;;;;5074733;28;20052;-82
2021/03/29 09:53:50;;;;;;;7.63;1.60;;;21.10;43.30;;;;;;5075264;28;20060;-83
2021/03/29 09:56:33;;;;;;;6.97;2.03;;;21.30;43.00;;;;;;5074494;28;20465;-82
2021/03/29 09:58:59;;;;;;;30.08;3.83;;;21.50;43.10;;;;;;5076433;28;20422;-82
2021/03/29 10:01:27;;;;;;;3.42;1.60;;;21.90;41.80;;;;;;5074269;28;20048;-82
2021/03/29 10:03:56;;;;;;;3.65;1.75;;;23.30;41.60;;;;;;5076003;28;20044;-82
2021/03/29 10:06:23;;;;;;;5.63;1.98;;;24.90;39.70;;;;;;5074325;28;20087;-82
2021/03/29 10:09:07;;;;;;;4.75;1.48;;;27.20;37.00;;;;;;5074952;28;20504;-83
2021/03/29 10:11:44;;;;;;;7.30;1.30;;;27.10;35.40;;;;;;5075623;28;20041;-82
2021/03/29 10:14:10;;;;;;;4.47;1.30;;;27.30;34.80;;;;;;5075595;28;20394;-82
2021/03/29 10:16:44;;;;;;;1.05;0.90;;;26.10;34.70;;;;;;5074826;28;20072;-82
2021/03/29 10:19:13;;;;;;;2.60;1.13;;;25.30;36.90;;;;;;5074777;28;20489;-82
2021/03/29 10:22:19;;;;;;;2.25;1.17;;;25.50;37.00;;;;;;5074248;28;20127;-82
2021/03/29 10:25:05;;;;;;;2.92;1.25;;;25.50;35.50;;;;;;5074464;28;20045;-82
2021/03/29 10:27:45;;;;;;;2.22;1.00;;;25.80;36.60;;;;;;5078469;28;20527;-82
2021/03/29 10:30:17;;;;;;;5.43;1.33;;;25.40;36.20;;;;;;5074778;28;20094;-83
2021/03/29 10:32:54;;;;;;;2.65;1.17;;;25.00;36.10;;;;;;5077281;28;20044;-82
2021/03/29 10:35:22;;;;;;;9.63;1.60;;;25.40;35.80;;;;;;5079537;28;20052;-82
2021/03/29 10:37:50;;;;;;;2.25;0.95;;;26.00;36.50;;;;;;5074817;28;20045;-85
2021/03/29 10:40:17;;;;;;;2.42;1.20;;;26.90;35.50;;;;;;5075873;28;20483;-82
2021/03/29 10:42:44;;;;;;;3.00;1.05;;;27.50;35.90;;;;;;5074463;28;20045;-82
2021/03/29 10:45:13;;;;;;;2.10;0.98;;;27.40;35.20;;;;;;5075915;28;20049;-82
2021/03/29 10:47:41;;;;;;;3.25;1.10;;;28.00;35.70;;;;;;5076209;28;20098;-82
2021/03/29 10:50:09;;;;;;;2.55;1.05;;;27.50;34.50;;;;;;5074971;28;20049;-82
2021/03/29 10:52:36;;;;;;;3.50;1.10;;;27.70;34.30;;;;;;5076018;28;20083;-83
2021/03/29 10:55:04;;;;;;;3.47;1.30;;;28.50;33.50;;;;;;5075014;28;20136;-82
2021/03/29 10:57:30;;;;;;;4.70;1.65;;;28.10;35.10;;;;;;5074263;28;20475;-84
2021/03/29 10:59:57;;;;;;;4.78;1.17;;;28.40;33.90;;;;;;5074370;28;20082;-82
2021/03/29 11:02:23;;;;;;;7.20;1.27;;;28.00;33.60;;;;;;5074563;28;20058;-82
2021/03/29 11:04:49;;;;;;;2.17;1.20;;;27.60;34.60;;;;;;5074518;28;20475;-82
2021/03/29 11:07:16;;;;;;;3.67;0.98;;;27.20;34.30;;;;;;5073643;28;20055;-82
2021/03/29 11:09:42;;;;;;;2.80;1.10;;;27.40;34.60;;;;;;5074808;28;20071;-82
2021/03/29 11:12:09;;;;;;;4.32;1.20;;;27.40;34.30;;;;;;5074282;28;20048;-82
2021/03/29 11:14:35;;;;;;;3.05;1.40;;;27.00;35.20;;;;;;5077463;28;20135;-83
2021/03/29 11:17:03;;;;;;;4.90;1.35;;;26.90;34.60;;;;;;5079188;28;20416;-82
2021/03/29 11:19:29;;;;;;;10.73;1.80;;;27.10;36.90;;;;;;5078478;28;20083;-83
2021/03/29 11:21:55;;;;;;;2.92;1.40;;;26.90;35.50;;;;;;5078724;28;20056;-82
2021/03/29 11:24:22;;;;;;;5.97;1.50;;;26.30;36.20;;;;;;5078288;28;20052;-82
2021/03/29 11:26:49;;;;;;;4.07;1.38;;;26.50;36.80;;;;;;5077617;28;20127;-82
2021/03/29 11:29:15;;;;;;;6.43;1.73;;;28.00;35.60;;;;;;5079528;28;20117;-82
2021/03/29 11:31:43;;;;;;;5.60;1.38;;;28.30;35.90;;;;;;5077761;28;20048;-82
2021/03/29 11:34:11;;;;;;;5.10;1.40;;;28.50;33.30;;;;;;5077347;28;20121;-83
2021/03/29 11:36:39;;;;;;;2.50;1.00;;;28.00;35.00;;;;;;5078170;28;20412;-82
2021/03/29 11:39:07;;;;;;;8.18;1.45;;;27.60;34.20;;;;;;5078897;28;20095;-82
2021/03/29 11:41:34;;;;;;;4.18;1.30;;;27.60;35.50;;;;;;5079997;28;20501;-83
2021/03/29 11:44:00;;;;;;;4.68;1.70;;;27.70;34.90;;;;;;5077556;28;20089;-83
2021/03/29 11:46:27;;;;;;;4.40;1.20;;;27.80;35.20;;;;;;5077176;28;20052;-82
2021/03/29 11:48:53;;;;;;;12.05;10.10;;;28.20;35.00;;;;;;5078033;28;20072;-82
2021/03/29 11:51:20;;;;;;;8.10;5.55;;;28.10;34.10;;;;;;5077545;28;20049;-82
2021/03/29 11:53:46;;;;;;;5.43;1.75;;;28.10;34.50;;;;;;5078693;28;20435;-82
2021/03/29 11:56:12;;;;;;;2.60;1.10;;;27.60;34.20;;;;;;5077553;28;20068;-82
2021/03/29 11:58:39;;;;;;;4.63;1.08;;;27.20;34.40;;;;;;5077947;28;20048;-83
2021/03/29 12:01:24;;;;;;;4.50;3.03;;;26.90;34.50;;;;;;5080645;28;20152;-82
2021/03/29 12:03:56;;;;;;;6.72;3.70;;;26.80;34.30;;;;;;5078877;28;20044;-82
2021/03/29 12:06:40;;;;;;;4.47;1.20;;;27.00;33.00;;;;;;5077046;28;20157;-82
2021/03/29 12:11:58;;;;;;;5.03;1.25;;;27.80;32.50;;;;;;5079549;28;20048;-82
2021/03/29 12:14:29;;;;;;;16.83;2.03;;;28.00;33.70;;;;;;5078598;28;20056;-82
2021/03/29 12:16:57;;;;;;;2.35;0.98;;;27.10;31.30;;;;;;5079455;28;20056;-82
2021/03/29 12:19:23;;;;;;;4.15;1.40;;;26.60;32.10;;;;;;5078034;28;20087;-82
2021/03/29 12:21:54;;;;;;;6.47;1.98;;;26.30;32.40;;;;;;5077590;28;20154;-82
2021/03/29 12:24:23;;;;;;;9.95;1.80;;;27.00;33.60;;;;;;5078135;28;20076;-82
2021/03/29 12:26:50;;;;;;;5.80;1.92;;;26.90;32.70;;;;;;5077701;28;20045;-82
2021/03/29 12:29:21;;;;;;;3.60;1.42;;;27.30;33.40;;;;;;5078079;28;20479;-83
2021/03/29 12:31:49;;;;;;;4.05;1.40;;;27.40;34.00;;;;;;5077050;28;20098;-82
2021/03/29 12:34:17;;;;;;;10.55;2.00;;;27.30;34.00;;;;;;5078800;28;20045;-83
2021/03/29 12:36:53;;;;;;;3.85;1.40;;;26.60;32.00;;;;;;5077113;28;20075;-82
2021/03/29 12:39:33;;;;;;;8.85;1.75;;;25.50;33.20;;;;;;5077239;28;20091;-82
2021/03/29 12:42:01;;;;;;;5.38;1.45;;;25.00;34.50;;;;;;5079855;28;20083;-83
2021/03/29 12:44:28;;;;;;;9.93;1.67;;;24.60;33.90;;;;;;5079038;28;20094;-82
2021/03/29 12:47:01;;;;;;;2.45;1.25;;;24.50;34.90;;;;;;5077144;28;20124;-82
2021/03/29 12:49:28;;;;;;;3.90;1.40;;;24.30;34.70;;;;;;5077471;28;20108;-82
2021/03/29 12:51:59;;;;;;;4.55;1.40;;;24.30;36.60;;;;;;5077804;28;20274;-82
2021/03/29 12:54:30;;;;;;;6.28;1.58;;;24.00;36.10;;;;;;5077325;28;20048;-82
2021/03/29 12:56:59;;;;;;;11.10;2.10;;;24.20;36.40;;;;;;5078564;28;20044;-82
2021/03/29 12:59:31;;;;;;;6.25;1.50;;;24.30;36.50;;;;;;5077533;28;20080;-82
2021/03/29 13:01:58;;;;;;;6.40;1.30;;;24.60;35.80;;;;;;5076869;28;20071;-83
2021/03/29 13:04:30;;;;;;;7.35;1.65;;;24.30;36.40;;;;;;5078190;28;20052;-82
2021/03/29 13:10:02;;;;;;;6.03;1.42;;;23.70;37.40;;;;;;5081982;28;20095;-82
2021/03/29 13:12:29;;;;;;;9.18;1.25;;;23.70;37.30;;;;;;5078611;28;20135;-82
2021/03/29 13:15:01;;;;;;;19.48;2.63;;;23.90;37.00;;;;;;5077386;28;20048;-81